Time;durP1;ratioP1;P1;durP2;ratioP2;P2;SDS_P1;SDS_P2;PMS_P1;PMS_P2;Temp;Humidity;BMP_temperature;BMP_pressure;BME280_temperature;BME280_humidity;BME280_pressure;Samples;Min_cycle;Max_cycle;Signal;HPM_P1;HPM_P2
2022/03/26 00:03:17;;;;;;;27.90;21.20;;;;;;;12.06;33.79;99067.81;8339173;28;20247;-65
2022/03/26 00:07:22;;;;;;;28.30;21.90;;;;;;;11.95;34.04;99072.50;8346877;28;20314;-65
2022/03/26 00:11:25;;;;;;;32.60;21.43;;;;;;;11.95;34.03;99077.69;8346782;28;20243;-65
2022/03/26 00:15:28;;;;;;;27.90;20.97;;;;;;;12.01;34.18;99075.72;8346506;28;20235;-64
2022/03/26 00:19:31;;;;;;;28.93;21.00;;;;;;;11.92;34.45;99078.63;8346347;28;20240;-64
2022/03/26 00:23:35;;;;;;;28.37;20.30;;;;;;;11.90;34.34;99070.06;8346206;28;20228;-65
2022/03/26 00:27:38;;;;;;;26.77;21.07;;;;;;;11.81;34.64;99070.31;8352348;28;20238;-65
2022/03/26 00:31:41;;;;;;;28.83;21.33;;;;;;;11.77;34.96;99073.91;8349634;28;20235;-65
2022/03/26 00:35:44;;;;;;;27.93;21.00;;;;;;;11.76;35.00;99074.78;8321337;28;20434;-64
2022/03/26 00:39:49;;;;;;;32.13;22.37;;;;;;;11.71;34.76;99069.75;8310434;28;20233;-64
2022/03/26 00:43:52;;;;;;;29.60;22.03;;;;;;;11.58;34.80;99078.81;8319474;28;20232;-64
2022/03/26 00:47:55;;;;;;;29.37;23.17;;;;;;;11.48;35.22;99076.50;8319598;28;20229;-64
2022/03/26 00:51:58;;;;;;;30.97;23.50;;;;;;;11.49;35.13;99082.53;8319399;28;20236;-64
2022/03/26 00:56:02;;;;;;;34.67;23.13;;;;;;;11.42;35.52;99075.81;8319092;28;20237;-63
2022/03/26 01:00:07;;;;;;;33.50;22.10;;;;;;;11.36;35.95;99063.88;8318993;28;20237;-64
2022/03/26 01:04:10;;;;;;;32.80;23.30;;;;;;;11.38;35.66;99069.03;8338762;28;20228;-64
2022/03/26 01:08:13;;;;;;;32.47;23.73;;;;;;;11.30;35.64;99074.44;8340928;28;20247;-64
2022/03/26 01:12:17;;;;;;;36.70;25.30;;;;;;;11.23;35.71;99068.59;8351622;28;20239;-65
2022/03/26 01:16:21;;;;;;;32.10;23.60;;;;;;;11.19;35.61;99066.97;8351365;28;20239;-64
2022/03/26 01:20:24;;;;;;;31.37;23.20;;;;;;;11.14;35.90;99056.75;8323454;28;20232;-65
2022/03/26 01:24:27;;;;;;;32.33;23.00;;;;;;;11.00;36.13;99050.25;8318581;28;20242;-64
2022/03/26 01:28:31;;;;;;;33.17;22.27;;;;;;;10.99;36.27;99054.59;8318398;28;20240;-64
2022/03/26 01:32:34;;;;;;;30.73;23.23;;;;;;;10.95;36.36;99050.41;8318292;28;20229;-64
2022/03/26 01:36:37;;;;;;;34.83;24.77;;;;;;;10.88;36.34;99054.06;8317350;28;20240;-64
2022/03/26 01:40:40;;;;;;;32.33;23.17;;;;;;;10.81;36.52;99053.38;8318195;28;20243;-64
2022/03/26 01:44:46;;;;;;;29.87;23.17;;;;;;;10.69;36.61;99045.94;8319673;28;20241;-64
2022/03/26 01:48:49;;;;;;;31.53;22.80;;;;;;;10.65;36.68;99036.56;8320044;28;20209;-64
2022/03/26 01:52:52;;;;;;;34.60;23.33;;;;;;;10.52;36.93;99033.47;8319952;28;20217;-64
2022/03/26 01:56:58;;;;;;;29.97;22.70;;;;;;;10.53;36.98;99036.00;8319953;28;20232;-64
2022/03/26 02:01:03;;;;;;;32.13;22.63;;;;;;;10.45;36.88;99039.69;8319609;28;20232;-64
2022/03/26 02:05:06;;;;;;;29.87;23.73;;;;;;;10.31;37.47;99047.81;8346984;28;20224;-64
2022/03/26 02:09:12;;;;;;;36.10;24.43;;;;;;;10.26;37.37;99049.63;8339559;28;20239;-65
2022/03/26 02:13:14;;;;;;;35.13;23.40;;;;;;;10.30;37.53;99052.16;8349781;28;20236;-66
2022/03/26 02:17:19;;;;;;;31.23;22.60;;;;;;;10.31;37.23;99051.25;8349589;28;20242;-64
2022/03/26 02:21:24;;;;;;;29.67;22.70;;;;;;;10.30;37.38;99057.34;8349559;28;20259;-64
2022/03/26 02:25:27;;;;;;;31.83;23.93;;;;;;;10.21;37.46;99044.59;8349488;28;20409;-64
2022/03/26 02:29:31;;;;;;;33.57;23.70;;;;;;;10.07;37.59;99047.53;8349226;28;20243;-64
2022/03/26 02:33:34;;;;;;;33.83;24.80;;;;;;;10.02;37.92;99061.47;8349220;28;20228;-65
2022/03/26 02:37:39;;;;;;;31.57;22.73;;;;;;;10.14;37.76;99050.81;8348882;28;20240;-65
2022/03/26 02:41:42;;;;;;;29.00;20.97;;;;;;;10.19;37.77;99046.38;8349011;28;20228;-64
2022/03/26 02:45:45;;;;;;;34.00;21.77;;;;;;;10.10;37.84;99044.00;8348730;28;20243;-67
2022/03/26 02:49:48;;;;;;;30.27;21.60;;;;;;;10.03;38.04;99042.47;8319467;28;20292;-65
2022/03/26 02:53:52;;;;;;;34.07;21.97;;;;;;;9.84;38.26;99031.72;8344359;28;20434;-65
2022/03/26 02:57:55;;;;;;;30.23;22.77;;;;;;;9.86;38.03;99037.69;8336504;28;20237;-65
2022/03/26 03:01:59;;;;;;;32.40;22.80;;;;;;;9.90;38.14;99024.66;8317769;28;20240;-64
2022/03/26 03:06:02;;;;;;;27.83;22.00;;;;;;;9.88;38.35;99034.19;8348040;28;20236;-66
2022/03/26 03:10:07;;;;;;;29.90;22.33;;;;;;;9.76;38.37;99030.16;8348261;28;20231;-64
2022/03/26 03:14:11;;;;;;;30.50;23.00;;;;;;;9.75;38.65;99038.81;8340605;28;20231;-65
2022/03/26 03:18:13;;;;;;;31.97;22.50;;;;;;;9.64;38.33;99042.56;8328177;28;20236;-64
2022/03/26 03:22:17;;;;;;;30.50;23.20;;;;;;;9.47;38.65;99037.75;8314890;28;20233;-65
2022/03/26 03:26:22;;;;;;;29.00;22.70;;;;;;;9.53;38.61;99035.88;8314907;28;20428;-64
2022/03/26 03:30:25;;;;;;;28.80;22.63;;;;;;;9.51;38.64;99031.63;8314431;28;20232;-64
2022/03/26 03:34:28;;;;;;;31.70;22.23;;;;;;;9.44;38.61;99030.91;8314772;28;20292;-64
2022/03/26 03:38:31;;;;;;;27.57;21.13;;;;;;;9.43;38.80;99029.22;8314514;28;20241;-64
2022/03/26 03:42:37;;;;;;;28.93;22.90;;;;;;;9.33;38.99;99040.66;8314622;28;20307;-66
2022/03/26 03:46:40;;;;;;;29.17;22.83;;;;;;;9.31;39.02;99034.66;8314468;28;20240;-64
2022/03/26 03:50:43;;;;;;;28.97;22.30;;;;;;;9.16;39.24;99034.13;8314261;28;20251;-64
2022/03/26 03:54:46;;;;;;;30.43;22.33;;;;;;;9.27;38.80;99040.78;8314287;28;20252;-64
2022/03/26 03:58:50;;;;;;;30.37;23.20;;;;;;;9.18;39.38;99040.09;8314386;28;20586;-64
2022/03/26 04:02:54;;;;;;;27.03;21.93;;;;;;;9.20;39.32;99034.91;8334858;28;20232;-64
2022/03/26 04:06:58;;;;;;;30.53;23.30;;;;;;;9.14;39.38;99042.81;8357742;28;20427;-64
2022/03/26 04:11:01;;;;;;;28.80;22.83;;;;;;;9.08;39.42;99045.50;8357737;28;20473;-64
2022/03/26 04:15:06;;;;;;;32.10;23.33;;;;;;;8.93;39.77;99046.66;8357649;28;20236;-64
2022/03/26 04:19:10;;;;;;;28.73;22.53;;;;;;;8.93;39.83;99057.00;8357255;28;20417;-64
2022/03/26 04:23:13;;;;;;;31.80;23.30;;;;;;;8.95;39.72;99055.25;8357577;28;20236;-64
2022/03/26 04:27:16;;;;;;;35.80;23.77;;;;;;;8.80;40.20;99062.41;8357477;28;20240;-64
2022/03/26 04:31:20;;;;;;;36.27;23.47;;;;;;;8.87;40.11;99062.28;8357444;28;20228;-64
2022/03/26 04:35:24;;;;;;;27.87;22.90;;;;;;;8.86;40.54;99069.19;8357172;28;20244;-64
2022/03/26 04:39:27;;;;;;;34.83;25.43;;;;;;;8.88;40.42;99079.50;8357315;28;20236;-64
2022/03/26 04:43:30;;;;;;;34.57;24.43;;;;;;;8.85;40.70;99072.63;8357188;28;20234;-64
2022/03/26 04:47:34;;;;;;;33.23;24.83;;;;;;;8.65;40.95;99080.78;8356927;28;20535;-66
2022/03/26 04:51:38;;;;;;;31.97;24.57;;;;;;;8.72;40.51;99077.22;8357187;28;20235;-65
2022/03/26 04:55:41;;;;;;;32.13;24.50;;;;;;;8.61;40.68;99081.72;8356929;28;20263;-64
2022/03/26 04:59:44;;;;;;;34.70;23.27;;;;;;;8.66;40.38;99084.22;8357100;28;20542;-64
2022/03/26 05:03:48;;;;;;;28.77;22.87;;;;;;;8.50;40.25;99092.25;8356845;28;20232;-64
2022/03/26 05:07:55;;;;;;;30.67;24.03;;;;;;;8.54;40.39;99093.03;8356716;28;20588;-64
2022/03/26 05:11:58;;;;;;;35.93;25.00;;;;;;;8.40;40.64;99093.25;8353266;28;20342;-64
2022/03/26 05:16:03;;;;;;;35.90;25.03;;;;;;;8.48;40.87;99096.59;8351549;28;20240;-64
2022/03/26 05:20:09;;;;;;;32.30;26.20;;;;;;;8.35;41.02;99098.50;8351534;28;20232;-64
2022/03/26 05:24:12;;;;;;;40.77;26.07;;;;;;;8.51;40.87;99093.09;8350961;28;20224;-64
2022/03/26 05:28:15;;;;;;;39.20;27.30;;;;;;;8.53;40.54;99094.78;8351221;28;20236;-66
2022/03/26 05:32:18;;;;;;;37.80;27.87;;;;;;;8.73;40.31;99098.72;8350939;28;20242;-64
2022/03/26 05:36:23;;;;;;;45.93;29.77;;;;;;;8.97;39.95;99102.56;8350979;28;20311;-64
2022/03/26 05:40:26;;;;;;;45.57;30.90;;;;;;;9.07;39.37;99101.50;8350727;28;20247;-64
2022/03/26 05:44:29;;;;;;;46.97;29.60;;;;;;;9.23;39.40;99108.94;8350760;28;20244;-64
2022/03/26 05:48:32;;;;;;;42.37;28.40;;;;;;;9.47;39.21;99108.41;8350760;28;20242;-64
2022/03/26 05:52:37;;;;;;;37.53;27.37;;;;;;;9.69;38.46;99110.53;8350401;28;20232;-64
2022/03/26 05:56:40;;;;;;;37.30;26.33;;;;;;;9.90;37.92;99115.22;8319811;28;20242;-64
2022/03/26 06:00:42;;;;;;;38.67;27.93;;;;;;;10.14;37.60;99118.94;8317478;28;20432;-64
2022/03/26 06:04:46;;;;;;;42.50;29.07;;;;;;;10.37;37.17;99121.00;8338462;28;20229;-65
2022/03/26 06:08:50;;;;;;;36.20;27.43;;;;;;;10.64;36.85;99126.41;8316911;28;20270;-64
2022/03/26 06:12:53;;;;;;;30.23;24.97;;;;;;;10.79;36.91;99137.22;8316828;28;20232;-64
2022/03/26 06:16:56;;;;;;;33.03;24.90;;;;;;;11.13;36.48;99132.81;8331292;28;20244;-64
2022/03/26 06:21:00;;;;;;;34.50;25.93;;;;;;;11.37;35.77;99134.78;8332382;28;20240;-64
2022/03/26 06:25:06;;;;;;;36.13;24.23;;;;;;;11.76;35.84;99139.66;8332306;28;20235;-64
2022/03/26 06:29:09;;;;;;;31.23;23.90;;;;;;;12.16;35.29;99143.66;8331718;28;20413;-65
2022/03/26 06:33:12;;;;;;;31.10;24.63;;;;;;;12.27;35.10;99141.56;8331866;28;20224;-64
2022/03/26 06:37:15;;;;;;;36.50;24.17;;;;;;;12.57;34.97;99144.06;8330429;28;20233;-64
2022/03/26 06:41:19;;;;;;;33.90;22.90;;;;;;;12.88;34.44;99141.22;8329785;28;20220;-64
2022/03/26 06:45:25;;;;;;;28.27;23.10;;;;;;;13.25;34.18;99145.97;8343130;28;20232;-64
2022/03/26 06:49:31;;;;;;;33.00;24.60;;;;;;;13.25;34.25;99140.78;8348492;28;20239;-64
2022/03/26 06:53:34;;;;;;;28.83;23.73;;;;;;;13.53;34.28;99146.72;8348469;28;20232;-65
2022/03/26 06:57:38;;;;;;;31.17;23.73;;;;;;;13.85;33.93;99161.13;8348255;28;20236;-65
2022/03/26 07:01:41;;;;;;;34.60;23.53;;;;;;;14.01;33.74;99157.03;8348163;28;20243;-64
2022/03/26 07:05:44;;;;;;;30.30;22.53;;;;;;;14.20;33.90;99161.47;8315189;28;20421;-64
2022/03/26 07:09:47;;;;;;;28.30;23.60;;;;;;;14.47;32.72;99162.97;8315315;28;20286;-65
2022/03/26 07:13:51;;;;;;;32.50;24.30;;;;;;;14.56;32.36;99159.13;8315115;28;20244;-64
2022/03/26 07:17:54;;;;;;;28.37;23.23;;;;;;;14.68;32.31;99152.63;8314919;28;20590;-64
2022/03/26 07:21:57;;;;;;;31.27;23.50;;;;;;;15.13;31.75;99163.72;8314743;28;20232;-64
2022/03/26 07:26:00;;;;;;;32.77;25.73;;;;;;;15.17;31.30;99163.53;8314919;28;20232;-64
2022/03/26 07:30:06;;;;;;;34.10;24.13;;;;;;;15.56;31.34;99161.81;8314863;28;20296;-65
2022/03/26 07:34:11;;;;;;;35.83;24.13;;;;;;;15.54;30.66;99161.88;8313676;28;20410;-65
2022/03/26 07:38:14;;;;;;;35.33;24.53;;;;;;;15.85;30.78;99163.09;8314390;28;20233;-65
2022/03/26 07:42:17;;;;;;;33.17;25.07;;;;;;;16.15;31.20;99163.41;8314438;28;20294;-65
2022/03/26 07:46:21;;;;;;;30.73;23.80;;;;;;;16.62;30.54;99162.00;8314233;28;20240;-65
2022/03/26 07:50:24;;;;;;;34.03;23.93;;;;;;;16.90;29.94;99166.69;8314348;28;20535;-65
2022/03/26 07:54:27;;;;;;;32.13;24.27;;;;;;;17.32;29.15;99161.94;8314101;28;20243;-64
2022/03/26 07:58:30;;;;;;;36.97;25.50;;;;;;;17.24;29.28;99161.50;8313922;28;20244;-64
2022/03/26 08:02:34;;;;;;;37.77;25.77;;;;;;;17.58;28.68;99169.22;8320951;28;20557;-67
2022/03/26 08:06:37;;;;;;;42.80;24.80;;;;;;;17.89;28.69;99170.22;8346597;28;20243;-65
2022/03/26 08:10:40;;;;;;;34.30;25.37;;;;;;;17.98;28.62;99168.88;8346417;28;20239;-65
2022/03/26 08:14:43;;;;;;;35.13;25.00;;;;;;;18.30;28.15;99176.69;8346592;28;20239;-65
2022/03/26 08:18:48;;;;;;;33.80;25.07;;;;;;;18.41;27.91;99171.69;8346441;28;20240;-66
2022/03/26 08:22:51;;;;;;;35.93;27.53;;;;;;;18.42;26.71;99180.41;8346607;28;20232;-65
2022/03/26 08:26:54;;;;;;;37.93;27.80;;;;;;;18.70;27.02;99185.72;8346531;28;20239;-65
2022/03/26 08:30:57;;;;;;;35.83;27.53;;;;;;;19.03;27.13;99183.88;8346393;28;20232;-65
2022/03/26 08:35:01;;;;;;;39.73;27.10;;;;;;;19.58;26.79;99192.78;8346366;28;20232;-65
2022/03/26 08:39:09;;;;;;;42.67;27.77;;;;;;;19.87;25.55;99193.63;8346136;28;20251;-65
2022/03/26 08:43:12;;;;;;;38.13;28.60;;;;;;;20.26;25.12;99197.28;8345897;28;20239;-66
2022/03/26 08:47:15;;;;;;;41.73;28.57;;;;;;;20.49;26.31;99203.69;8349640;28;20232;-66
2022/03/26 08:51:20;;;;;;;34.57;26.77;;;;;;;20.61;25.24;99200.25;8352610;28;20235;-66
2022/03/26 08:55:23;;;;;;;36.77;28.23;;;;;;;20.72;25.37;99201.34;8352451;28;20232;-66
2022/03/26 08:59:26;;;;;;;35.53;27.47;;;;;;;21.13;24.71;99197.69;8351930;28;20247;-66
2022/03/26 09:03:31;;;;;;;36.00;28.33;;;;;;;21.27;24.37;99203.72;8351941;28;20241;-65
2022/03/26 09:07:36;;;;;;;42.00;30.20;;;;;;;21.26;24.37;99204.66;8351724;28;20287;-66
2022/03/26 09:11:39;;;;;;;45.70;30.73;;;;;;;20.73;24.37;99203.03;8351959;28;20235;-66
2022/03/26 09:15:42;;;;;;;38.83;29.97;;;;;;;21.31;24.65;99203.50;8351706;28;20280;-66
2022/03/26 09:19:46;;;;;;;42.37;28.67;;;;;;;21.83;24.74;99202.50;8351411;28;20439;-66
2022/03/26 09:23:50;;;;;;;45.30;29.77;;;;;;;21.98;23.69;99197.94;8351530;28;20240;-66
2022/03/26 09:27:53;;;;;;;41.03;28.97;;;;;;;21.97;23.49;99197.09;8351164;28;20244;-66
2022/03/26 09:31:56;;;;;;;44.50;28.87;;;;;;;22.30;23.42;99192.16;8351052;28;20240;-66
2022/03/26 09:35:59;;;;;;;45.13;30.43;;;;;;;21.71;23.17;99187.56;8350849;28;20515;-66
2022/03/26 09:40:04;;;;;;;40.60;29.50;;;;;;;22.23;23.40;99189.09;8350475;28;20232;-66
2022/03/26 09:44:07;;;;;;;42.23;31.00;;;;;;;22.30;22.81;99189.53;8350457;28;20566;-65
2022/03/26 09:48:10;;;;;;;38.83;30.20;;;;;;;22.71;23.47;99196.97;8325630;28;20235;-66
2022/03/26 09:52:14;;;;;;;44.23;30.43;;;;;;;22.10;22.65;99191.75;8317849;28;20234;-66
2022/03/26 09:56:19;;;;;;;37.63;29.53;;;;;;;22.68;22.76;99194.59;8330035;28;20428;-66
2022/03/26 10:00:27;;;;;;;42.77;29.77;;;;;;;23.08;22.82;99188.97;8330519;28;20239;-66
2022/03/26 10:04:38;;;;;;;36.23;28.43;;;;;;;22.62;21.71;99195.06;8333309;28;20243;-66
2022/03/26 10:08:41;;;;;;;39.70;28.20;;;;;;;22.95;21.86;99182.91;8338222;28;20244;-65
2022/03/26 10:12:50;;;;;;;40.33;29.43;;;;;;;21.56;22.20;99182.44;8349334;28;20239;-66
2022/03/26 10:16:53;;;;;;;35.90;27.00;;;;;;;21.86;21.80;99179.41;8346445;28;20239;-66
2022/03/26 10:21:00;;;;;;;36.90;26.27;;;;;;;22.59;21.32;99169.72;8348013;28;20236;-66
2022/03/26 10:25:06;;;;;;;40.10;27.47;;;;;;;21.15;22.53;99174.72;8349443;28;20242;-65
2022/03/26 10:29:12;;;;;;;40.27;26.30;;;;;;;22.22;21.35;99171.59;8348550;28;20565;-66
2022/03/26 10:33:19;;;;;;;33.77;25.40;;;;;;;22.45;21.17;99164.63;8349196;28;20546;-66
2022/03/26 10:37:22;;;;;;;33.67;24.03;;;;;;;21.65;21.75;99162.50;8348808;28;20235;-66
2022/03/26 10:41:25;;;;;;;39.67;22.37;;;;;;;22.46;20.96;99168.94;8348908;28;20232;-66
2022/03/26 10:45:31;;;;;;;34.57;24.70;;;;;;;23.26;21.17;99164.72;8346276;28;28197;-66
2022/03/26 10:49:36;;;;;;;43.17;24.20;;;;;;;23.66;21.27;99156.28;8316238;28;20250;-66
2022/03/26 10:53:40;;;;;;;37.77;23.40;;;;;;;23.23;20.45;99148.13;8315521;28;20235;-66
2022/03/26 10:57:46;;;;;;;33.50;23.93;;;;;;;23.53;20.50;99144.06;8315902;28;20252;-66
2022/03/26 11:01:50;;;;;;;34.03;23.40;;;;;;;23.83;21.05;99141.75;8316736;28;20232;-66
2022/03/26 11:05:55;;;;;;;37.37;24.47;;;;;;;22.27;21.34;99145.72;8347883;28;20295;-66
2022/03/26 11:09:58;;;;;;;32.63;21.10;;;;;;;23.31;20.21;99130.84;8347012;28;20243;-65
2022/03/26 11:14:03;;;;;;;30.87;21.30;;;;;;;22.62;20.38;99150.19;8348071;28;20235;-66
2022/03/26 11:18:32;;;;;;;37.70;21.93;;;;;;;22.33;20.75;99132.09;8329501;28;20239;-66
2022/03/26 11:22:45;;;;;;;34.53;16.50;;;;;;;23.19;30.38;99122.09;8331200;28;20527;-63
2022/03/26 11:27:00;;;;;;;31.83;14.33;;;;;;;23.28;28.91;99117.84;8329956;28;20454;-63
2022/03/26 11:31:07;;;;;;;35.37;14.30;;;;;;;23.78;21.95;99113.00;8335951;28;20231;-62
2022/03/26 11:35:14;;;;;;;39.33;15.13;;;;;;;23.90;25.20;99117.31;8337560;28;20231;-62
2022/03/26 11:39:19;;;;;;;28.63;14.67;;;;;;;23.93;25.95;99108.28;8336815;28;20426;-63
2022/03/26 11:43:52;;;;;;;25.47;14.97;;;;;;;24.08;23.00;99104.38;8326543;28;20356;-62
2022/03/26 11:52:23;;;;;;;26.43;12.80;;;;;;;23.45;26.37;99088.28;8318578;28;20427;-63
2022/03/26 11:56:28;;;;;;;28.27;14.23;;;;;;;23.51;23.16;99087.78;8343314;28;20247;-63
2022/03/26 12:00:31;;;;;;;33.80;15.17;;;;;;;22.87;22.79;99085.78;8339119;28;20416;-63
2022/03/26 12:04:47;;;;;;;28.87;14.83;;;;;;;23.12;25.13;99079.44;8337350;28;20561;-63
2022/03/26 12:08:53;;;;;;;50.87;15.50;;;;;;;24.04;22.15;99075.66;8342301;28;20236;-62
2022/03/26 12:13:03;;;;;;;25.37;10.97;;;;;;;23.37;17.21;99064.28;8335949;28;20575;-62
2022/03/26 12:17:07;;;;;;;25.80;12.40;;;;;;;23.96;17.18;99060.41;8314190;28;20240;-66
2022/03/26 12:21:19;;;;;;;27.60;14.40;;;;;;;23.26;17.51;99056.38;8315127;28;20248;-66
2022/03/26 12:25:47;;;;;;;30.30;14.40;;;;;;;22.25;18.27;99048.19;8320571;28;20260;-66
2022/03/26 12:29:50;;;;;;;26.13;13.60;;;;;;;22.34;18.88;99043.22;8320475;28;20240;-66
2022/03/26 12:33:53;;;;;;;28.53;11.63;;;;;;;23.67;21.91;99044.28;8321452;28;20246;-62
2022/03/26 12:37:56;;;;;;;31.67;10.93;;;;;;;23.78;21.08;99046.88;8328077;28;20244;-62
2022/03/26 12:42:01;;;;;;;29.27;13.30;;;;;;;23.41;19.54;99036.63;8352508;28;20235;-62
2022/03/26 12:46:09;;;;;;;27.37;12.37;;;;;;;23.47;18.80;99038.78;8349312;28;20234;-62
2022/03/26 12:50:13;;;;;;;30.80;12.10;;;;;;;24.04;20.02;99036.81;8351831;28;20224;-63
2022/03/26 12:54:16;;;;;;;21.10;11.43;;;;;;;24.31;19.88;99025.75;8352492;28;20561;-63
2022/03/26 13:02:41;;;;;;;24.80;12.93;;;;;;;24.48;18.44;99026.09;8351716;28;20235;-62
2022/03/26 13:06:44;;;;;;;28.30;11.90;;;;;;;24.63;18.44;99014.22;8323249;28;20307;-62
2022/03/26 13:10:47;;;;;;;29.60;12.13;;;;;;;24.44;18.95;99022.88;8319118;28;20247;-62
2022/03/26 13:14:52;;;;;;;27.20;10.67;;;;;;;24.27;22.06;99012.88;8318918;28;20426;-62
2022/03/26 13:18:59;;;;;;;21.50;10.10;;;;;;;24.32;20.49;99002.75;8318503;28;20574;-62
2022/03/26 13:23:03;;;;;;;22.13;11.43;;;;;;;24.49;18.37;99009.25;8318628;28;20236;-62
2022/03/26 13:27:08;;;;;;;26.93;10.83;;;;;;;23.87;19.14;99008.28;8318519;28;20240;-62
2022/03/26 13:31:25;;;;;;;22.67;10.20;;;;;;;23.46;22.23;98994.81;8330761;28;20243;-63
2022/03/26 13:35:28;;;;;;;19.57;9.23;;;;;;;24.04;18.63;98994.47;8317272;28;20243;-62
2022/03/26 13:39:31;;;;;;;17.23;9.30;;;;;;;24.24;18.45;98999.88;8318112;28;20444;-62
2022/03/26 13:43:34;;;;;;;23.53;9.70;;;;;;;24.32;18.00;98993.00;8318103;28;20244;-63
2022/03/26 13:47:39;;;;;;;26.37;10.03;;;;;;;24.40;18.29;98990.53;8317997;28;20267;-63
2022/03/26 13:51:43;;;;;;;23.47;10.90;;;;;;;24.26;18.49;98990.88;8317169;28;20233;-62
2022/03/26 13:55:50;;;;;;;20.10;10.57;;;;;;;24.46;18.48;98988.31;8317325;28;20236;-63
2022/03/26 13:59:53;;;;;;;23.87;10.90;;;;;;;24.30;17.94;98976.41;8322806;28;20347;-63
2022/03/26 14:03:58;;;;;;;24.87;10.10;;;;;;;24.27;17.64;98979.31;8350066;28;20243;-63
2022/03/26 14:08:02;;;;;;;19.10;8.67;;;;;;;24.41;17.68;98975.50;8342102;28;20546;-63
2022/03/26 14:12:08;;;;;;;23.17;9.03;;;;;;;23.81;19.56;98976.06;8328488;28;20242;-63
2022/03/26 14:16:12;;;;;;;29.10;9.50;;;;;;;24.10;18.65;98970.13;8329391;28;20230;-63
2022/03/26 14:20:17;;;;;;;21.30;8.73;;;;;;;24.32;18.60;98968.34;8349616;28;20425;-63
2022/03/26 14:24:19;;;;;;;24.83;8.87;;;;;;;23.79;17.89;98961.31;8349470;28;20240;-62
2022/03/26 14:28:26;;;;;;;27.53;8.73;;;;;;;23.54;20.13;98959.84;8337898;28;20255;-63
2022/03/26 14:32:30;;;;;;;25.23;9.23;;;;;;;23.35;19.27;98963.97;8321329;28;20236;-62
2022/03/26 14:36:35;;;;;;;21.97;7.90;;;;;;;23.36;23.67;98956.88;8349241;28;20238;-65
2022/03/26 14:40:38;;;;;;;19.30;8.63;;;;;;;23.66;19.20;98942.94;8348402;28;20581;-64
2022/03/26 14:44:41;;;;;;;20.30;8.03;;;;;;;23.80;21.62;98947.97;8343948;28;20240;-63
2022/03/26 14:48:44;;;;;;;22.40;8.30;;;;;;;23.91;20.41;98952.38;8315737;28;20233;-63
2022/03/26 14:52:48;;;;;;;20.93;9.40;;;;;;;23.47;19.27;98945.44;8315596;28;20236;-64
2022/03/26 14:56:51;;;;;;;22.70;9.00;;;;;;;23.59;19.36;98939.16;8315859;28;20237;-63
2022/03/26 15:00:55;;;;;;;19.83;9.23;;;;;;;23.17;19.29;98950.47;8315754;28;20582;-64
2022/03/26 15:04:59;;;;;;;15.83;8.60;;;;;;;23.08;19.74;98945.91;8342207;28;20263;-64
2022/03/26 15:09:04;;;;;;;17.77;8.17;;;;;;;23.23;21.61;98951.75;8348019;28;20339;-63
2022/03/26 15:13:07;;;;;;;21.93;8.70;;;;;;;23.26;18.85;98942.75;8348219;28;20242;-66
2022/03/26 15:17:10;;;;;;;19.33;8.90;;;;;;;23.19;18.55;98937.13;8347705;28;20235;-67
2022/03/26 15:21:13;;;;;;;18.93;8.40;;;;;;;22.99;18.65;98941.34;8344653;28;20235;-66
2022/03/26 15:25:17;;;;;;;21.27;8.80;;;;;;;22.85;18.36;98937.16;8330415;28;20244;-69
2022/03/26 15:29:20;;;;;;;21.67;8.60;;;;;;;;;;8314858;28;20550;-66
2022/03/26 15:33:23;;;;;;;24.47;8.73;;;;;;;22.64;18.56;98937.91;8314949;28;20236;-66
2022/03/26 15:37:27;;;;;;;21.40;8.73;;;;;;;22.37;18.63;98926.84;8314663;28;20239;-66
2022/03/26 15:41:31;;;;;;;25.23;8.43;;;;;;;22.32;19.54;98937.78;8314526;28;20247;-66
2022/03/26 15:45:34;;;;;;;18.03;8.60;;;;;;;22.36;19.52;98933.94;8314573;28;20235;-66
2022/03/26 15:49:51;;;;;;;21.30;8.27;;;;;;;22.37;19.00;98935.63;8314317;28;20237;-66
2022/03/26 15:53:55;;;;;;;21.27;8.03;;;;;;;22.13;18.68;98932.22;8313934;28;20240;-66
2022/03/26 15:57:59;;;;;;;20.83;8.23;;;;;;;21.96;18.94;98936.97;8313694;28;20535;-66
2022/03/26 16:02:02;;;;;;;19.17;7.80;;;;;;;21.79;19.31;98934.78;8322841;28;21508;-66
2022/03/26 16:06:05;;;;;;;17.63;7.83;;;;;;;21.74;19.15;98940.41;8337498;28;20231;-66
2022/03/26 16:10:09;;;;;;;24.57;8.73;;;;;;;21.63;19.87;98938.56;8313827;28;20349;-66
2022/03/26 16:14:14;;;;;;;23.03;9.13;;;;;;;21.64;20.02;98944.66;8322708;28;20230;-66
2022/03/26 16:18:17;;;;;;;21.63;9.60;;;;;;;21.36;20.58;98945.81;8331047;28;20226;-66
2022/03/26 16:22:20;;;;;;;23.70;10.93;;;;;;;21.19;20.63;98952.31;8326729;28;20245;-66
2022/03/26 16:26:23;;;;;;;33.10;9.77;;;;;;;20.97;20.88;98955.66;8330104;28;20607;-66
2022/03/26 16:30:28;;;;;;;22.47;9.87;;;;;;;20.97;21.45;98956.50;8313949;28;20423;-66
2022/03/26 16:34:31;;;;;;;24.63;10.57;;;;;;;20.84;22.03;98953.91;8340026;28;20261;-66
2022/03/26 16:38:33;;;;;;;25.57;13.53;;;;;;;20.61;22.75;98957.31;8346451;28;20535;-66
2022/03/26 16:42:37;;;;;;;27.63;15.33;;;;;;;20.48;23.25;98955.50;8346067;28;20307;-67
2022/03/26 16:46:42;;;;;;;38.50;15.00;;;;;;;20.51;23.40;98965.00;8346071;28;20240;-66
2022/03/26 16:50:45;;;;;;;23.23;13.90;;;;;;;20.39;24.14;98961.41;8330627;28;20569;-66
2022/03/26 16:54:48;;;;;;;19.07;13.37;;;;;;;20.24;24.16;98952.78;8313537;28;20229;-69
2022/03/26 16:58:51;;;;;;;22.10;14.10;;;;;;;20.07;24.41;98953.09;8319036;28;20233;-74
2022/03/26 17:02:57;;;;;;;27.57;14.03;;;;;;;19.79;25.14;98951.47;8346135;28;20256;-65
2022/03/26 17:07:00;;;;;;;25.07;14.17;;;;;;;19.82;25.38;98952.13;8346846;28;20236;-65
2022/03/26 17:11:03;;;;;;;21.57;13.23;;;;;;;19.77;25.47;98958.63;8352062;28;20236;-66
2022/03/26 17:15:07;;;;;;;29.63;17.03;;;;;;;19.69;25.97;98956.47;8351690;28;20535;-66
2022/03/26 17:19:12;;;;;;;36.30;19.40;;;;;;;19.56;25.99;98956.44;8351273;28;20230;-66
2022/03/26 17:23:14;;;;;;;27.47;15.13;;;;;;;19.55;26.14;98954.72;8351274;28;20236;-66
2022/03/26 17:27:21;;;;;;;27.07;14.97;;;;;;;19.36;26.14;98959.50;8351150;28;20244;-66
2022/03/26 17:31:26;;;;;;;27.10;14.90;;;;;;;19.38;26.57;98953.22;8351050;28;20566;-66
2022/03/26 17:35:31;;;;;;;41.10;30.00;;;;;;;19.27;26.80;98951.28;8351012;28;20254;-65
2022/03/26 17:39:33;;;;;;;31.60;18.43;;;;;;;19.15;27.03;98957.31;8350879;28;20243;-67
2022/03/26 17:43:37;;;;;;;31.50;17.30;;;;;;;19.04;27.10;98960.66;8347798;28;20241;-66
2022/03/26 17:47:40;;;;;;;29.17;17.97;;;;;;;18.91;27.51;98962.34;8323777;28;20423;-66
2022/03/26 17:51:45;;;;;;;30.50;16.27;;;;;;;18.89;27.32;98965.06;8317553;28;20247;-65
2022/03/26 17:55:48;;;;;;;23.40;15.00;;;;;;;18.68;27.82;98971.63;8317350;28;20236;-65
2022/03/26 17:59:51;;;;;;;29.63;15.43;;;;;;;18.57;27.79;98969.66;8317252;28;20427;-66
2022/03/26 18:03:54;;;;;;;28.03;14.43;;;;;;;18.45;28.24;98973.88;8335096;28;20424;-65
2022/03/26 18:08:00;;;;;;;24.57;13.57;;;;;;;18.33;28.48;98967.59;8349999;28;20589;-65
2022/03/26 18:12:04;;;;;;;26.20;14.00;;;;;;;18.28;28.77;98972.28;8350139;28;20239;-65
2022/03/26 18:17:56;;;;;;;20.07;13.17;;;;;;;18.05;29.21;98983.25;8401611;27;1550125;-93
2022/03/26 18:22:00;;;;;;;20.47;13.40;;;;;;;18.05;29.38;98989.38;8444918;28;20237;-96
2022/03/26 18:26:04;;;;;;;25.70;14.13;;;;;;;17.92;29.54;98980.53;8414791;28;20541;-93
2022/03/26 18:30:09;;;;;;;29.57;13.83;;;;;;;17.81;30.19;98991.59;8411059;28;20237;-91
2022/03/26 18:34:14;;;;;;;27.13;15.30;;;;;;;17.70;29.98;98986.13;8442248;28;20233;-91
2022/03/26 18:38:17;;;;;;;24.07;14.93;;;;;;;17.57;30.54;98989.47;8425584;28;20576;-96
2022/03/26 18:42:21;;;;;;;45.07;16.97;;;;;;;17.48;31.04;99000.44;8437689;28;20629;-94
2022/03/26 18:46:24;;;;;;;37.03;18.67;;;;;;;17.41;30.99;98995.66;8446629;28;20230;-93
2022/03/26 18:50:29;;;;;;;39.37;22.13;;;;;;;17.38;31.36;99007.13;8443853;28;20253;-95
2022/03/26 18:54:33;;;;;;;50.30;28.23;;;;;;;17.06;31.85;99006.28;8426524;28;20237;-95
2022/03/26 18:58:36;;;;;;;40.07;23.60;;;;;;;16.97;32.09;99013.69;8405882;28;20230;-94